Time;durP1;ratioP1;P1;durP2;ratioP2;P2;SDS_P1;SDS_P2;PMS_P1;PMS_P2;Temp;Humidity;BMP_temperature;BMP_pressure;BME280_temperature;BME280_humidity;BME280_pressure;Samples;Min_cycle;Max_cycle;Signal;HPM_P1;HPM_P2
2022/12/30 00:02:24;;;;;;;;;2.25;2.25;;;;;20.73;38.52;100815.31;5048966;28;46271;-56
2022/12/30 00:04:49;;;;;;;;;3.00;3.00;;;;;20.76;38.25;100812.56;5048831;28;45358;-54
2022/12/30 00:07:15;;;;;;;;;1.00;1.00;;;;;20.72;38.66;100809.22;5047781;28;56367;-53
2022/12/30 00:09:40;;;;;;;;;3.50;2.00;;;;;20.84;38.60;100824.31;5057625;28;45266;-51
2022/12/30 00:34:24;;;;;;;;;2.00;2.00;;;;;21.20;38.22;100788.06;5038097;28;45411;-50
2022/12/30 00:36:50;;;;;;;;;4.75;2.00;;;;;21.23;38.27;100782.56;5019534;28;45461;-58
2022/12/30 00:39:16;;;;;;;;;2.00;2.00;;;;;21.26;37.97;100781.56;5049783;28;44644;-54
2022/12/30 00:44:26;;;;;;;;;2.25;1.00;;;;;21.30;37.87;100773.38;5037290;28;45327;-55
2022/12/30 00:46:52;;;;;;;;;4.50;2.25;;;;;21.35;37.86;100774.88;5037452;28;45376;-56
2022/12/30 00:57:28;;;;;;;;;5.00;4.00;;;;;21.43;37.73;100772.66;5037807;28;45813;-58
2022/12/30 00:59:54;;;;;;;;;4.25;2.75;;;;;21.46;37.74;100777.72;5023651;28;45301;-49
2022/12/30 01:02:20;;;;;;;;;2.00;2.00;;;;;21.47;37.98;100768.88;5045485;28;45305;-49
2022/12/30 01:04:45;;;;;;;;;2.00;2.00;;;;;21.50;37.82;100767.88;5040325;28;45371;-58
2022/12/30 01:07:10;;;;;;;;;3.33;2.00;;;;;21.51;37.72;100762.47;5036640;28;70309;-49
2022/12/30 01:09:36;;;;;;;;;3.50;2.00;;;;;21.52;37.75;100761.53;5037914;28;45397;-58
2022/12/30 01:12:08;;;;;;;;;2.50;1.00;;;;;21.54;37.82;100764.94;5037641;28;45372;-50
2022/12/30 01:14:40;;;;;;;;;2.25;2.00;;;;;21.57;37.66;100756.81;5037726;28;46227;-55
2022/12/30 01:17:08;;;;;;;;;2.75;2.00;;;;;21.58;37.53;100750.59;5052970;28;45380;-55
2022/12/30 01:19:34;;;;;;;;;2.00;2.00;;;;;21.58;37.33;100750.59;5055663;28;44695;-49
2022/12/30 01:21:59;;;;;;;;;2.00;1.00;;;;;21.60;37.63;100748.75;5035997;28;45228;-57
2022/12/30 01:24:25;;;;;;;;;1.00;1.00;;;;;21.59;37.56;100747.06;5037026;28;45284;-56
2022/12/30 01:26:51;;;;;;;;;2.00;2.00;;;;;21.65;37.29;100737.09;5036455;28;45444;-49
2022/12/30 01:29:34;;;;;;;;;2.00;2.00;;;;;21.66;37.32;100739.63;5055096;28;45225;-53
2022/12/30 01:31:59;;;;;;;;;2.75;2.00;;;;;21.68;37.48;100743.03;5043489;28;45253;-57
2022/12/30 01:34:26;;;;;;;;;2.25;2.00;;;;;21.68;37.44;100739.53;5037160;28;45400;-51
2022/12/30 01:36:51;;;;;;;;;3.50;2.50;;;;;21.71;37.28;100739.34;5044182;28;45245;-49
2022/12/30 01:39:17;;;;;;;;;3.25;2.00;;;;;21.72;37.47;100748.94;5042614;28;45286;-52
2022/12/30 01:41:43;;;;;;;;;2.50;2.00;;;;;21.67;37.49;100743.09;5042269;28;45317;-52
2022/12/30 01:44:45;;;;;;;;;4.00;2.00;;;;;21.72;37.50;100741.88;5036444;28;45627;-53
2022/12/30 01:47:18;;;;;;;;;2.00;2.00;;;;;21.76;37.49;100747.84;5036242;28;45775;-54
2022/12/30 01:49:46;;;;;;;;;1.50;1.50;;;;;21.77;37.12;100745.09;5036820;28;45254;-57
2022/12/30 01:52:16;;;;;;;;;2.50;2.00;;;;;21.77;37.18;100747.72;5037436;28;45236;-51
2022/12/30 01:54:42;;;;;;;;;4.25;3.00;;;;;21.80;37.44;100743.22;5036606;28;45409;-53
2022/12/30 01:57:07;;;;;;;;;2.00;2.00;;;;;21.79;37.43;100729.16;5036460;28;45447;-53
2022/12/30 01:59:35;;;;;;;;;2.00;2.00;;;;;21.82;37.20;100736.06;5036787;28;45427;-53
2022/12/30 02:02:01;;;;;;;;;3.00;3.00;;;;;21.83;37.39;100735.94;5019373;28;45213;-50
2022/12/30 02:04:28;;;;;;;;;2.00;2.00;;;;;21.83;37.24;100733.31;5051332;28;46418;-52
2022/12/30 02:07:03;;;;;;;;;3.00;3.00;;;;;21.84;36.93;100742.91;5042402;28;45782;-55
2022/12/30 02:09:30;;;;;;;;;1.25;1.25;;;;;21.85;37.25;100744.63;5035184;28;45308;-58
2022/12/30 02:11:57;;;;;;;;;1.25;1.25;;;;;21.80;37.03;100730.84;5036621;28;45562;-57
2022/12/30 02:14:26;;;;;;;;;3.75;2.00;;;;;21.84;37.06;100735.00;5037957;28;45415;-56
2022/12/30 02:17:13;;;;;;;;;3.00;2.00;;;;;21.88;37.15;100738.28;5040389;28;45390;-53
2022/12/30 02:20:12;;;;;;;;;2.00;2.00;;;;;21.87;36.92;100740.09;5039883;28;45332;-54
2022/12/30 02:22:59;;;;;;;;;2.75;2.00;;;;;21.87;37.18;100734.81;5039995;28;45478;-55
2022/12/30 02:25:56;;;;;;;;;4.00;2.00;;;;;21.86;37.10;100726.97;5042995;28;45463;-53
2022/12/30 02:28:55;;;;;;;;;1.75;1.75;;;;;21.86;36.89;100734.91;5039227;28;45692;-55
2022/12/30 02:31:29;;;;;;;;;1.50;0.50;;;;;21.84;36.88;100729.72;5039436;28;45370;-55
2022/12/30 02:34:00;;;;;;;;;3.00;2.00;;;;;21.83;36.78;100733.31;5050329;28;46018;-51
2022/12/30 02:37:19;;;;;;;;;2.00;2.00;;;;;21.82;36.68;100725.50;5040396;28;45273;-49
2022/12/30 02:40:13;;;;;;;;;4.00;2.00;;;;;21.81;36.85;100723.78;4936273;28;45528;-51
2022/12/30 02:45:47;;;;;;;;;2.00;2.00;;;;;21.77;37.06;100715.22;5055669;28;45348;-60
2022/12/30 02:48:20;;;;;;;;;2.50;2.25;;;;;21.75;36.77;100710.03;5050363;28;46125;-66
2022/12/30 02:53:37;;;;;;;;;4.00;3.00;;;;;21.73;36.91;100711.09;5043677;28;45334;-53
2022/12/30 02:56:03;;;;;;;;;4.75;2.00;;;;;21.72;37.03;100701.47;5044065;28;45197;-61
2022/12/30 02:58:32;;;;;;;;;2.25;2.00;;;;;21.64;36.85;100696.66;5037949;28;45909;-52
2022/12/30 03:04:21;;;;;;;;;1.00;1.00;;;;;21.62;37.01;100683.59;5039135;28;45464;-49
2022/12/30 03:07:09;;;;;;;;;2.00;2.00;;;;;21.65;37.09;100682.53;5039000;28;45442;-52
2022/12/30 03:09:34;;;;;;;;;2.00;2.00;;;;;21.65;37.02;100681.72;5036815;28;47571;-51
2022/12/30 03:12:22;;;;;;;;;2.00;2.00;;;;;21.65;36.88;100686.97;5038688;28;45451;-54
2022/12/30 03:14:56;;;;;;;;;1.25;1.25;;;;;21.62;36.80;100682.72;5038569;28;45325;-53
2022/12/30 03:17:41;;;;;;;;;2.75;2.00;;;;;21.57;36.96;100669.78;5046963;28;45338;-52
2022/12/30 03:20:11;;;;;;;;;2.50;2.00;;;;;21.58;37.13;100666.22;5063251;28;45764;-62
2022/12/30 03:28:12;;;;;;;;;2.25;2.00;;;;;21.57;37.08;100664.53;5038547;28;45489;-57
2022/12/30 03:30:53;;;;;;;;;3.00;3.00;;;;;21.55;37.09;100655.03;5043763;28;45568;-56
2022/12/30 03:33:19;;;;;;;;;2.75;2.00;;;;;21.53;36.98;100652.50;5045845;28;45844;-50
2022/12/30 03:35:55;;;;;;;;;3.25;3.00;;;;;21.53;36.85;100656.91;5041005;28;45218;-55
2022/12/30 03:38:25;;;;;;;;;2.00;2.00;;;;;21.51;37.02;100664.91;5039033;28;45407;-51
2022/12/30 03:40:55;;;;;;;;;2.50;2.00;;;;;21.50;37.04;100659.75;5038208;28;46110;-54
2022/12/30 03:43:21;;;;;;;;;2.00;2.00;;;;;21.49;37.41;100661.53;5038530;28;45393;-53
2022/12/30 03:45:46;;;;;;;;;2.00;2.00;;;;;21.48;37.20;100657.19;5038766;28;45506;-54
2022/12/30 03:48:11;;;;;;;;;4.25;2.00;;;;;21.47;37.27;100652.84;5038471;28;45530;-51
2022/12/30 03:50:37;;;;;;;;;2.75;2.75;;;;;21.46;37.04;100643.25;5038124;28;59732;-53
2022/12/30 03:53:02;;;;;;;;;4.00;3.00;;;;;21.44;37.02;100639.88;5047815;28;65273;-54
2022/12/30 03:55:27;;;;;;;;;3.00;3.00;;;;;21.43;37.32;100635.56;5050358;28;45392;-59
2022/12/30 03:57:53;;;;;;;;;3.00;3.00;;;;;21.42;37.39;100639.13;5038702;28;45372;-54
2022/12/30 04:00:18;;;;;;;;;2.00;2.00;;;;;21.41;37.02;100633.00;5037467;28;72308;-54
2022/12/30 04:02:43;;;;;;;;;2.00;2.00;;;;;21.40;37.11;100627.81;5037707;28;45331;-55
2022/12/30 04:05:09;;;;;;;;;3.67;2.00;;;;;21.38;37.31;100621.78;5037556;28;54021;-53
2022/12/30 04:07:35;;;;;;;;;1.25;1.25;;;;;21.36;37.18;100618.41;5037837;28;45470;-49
2022/12/30 04:10:01;;;;;;;;;4.25;2.25;;;;;21.35;37.45;100616.69;5057703;28;45887;-55
2022/12/30 04:12:26;;;;;;;;;3.75;2.00;;;;;21.34;37.29;100617.66;5043919;28;45324;-51
2022/12/30 04:14:52;;;;;;;;;1.25;1.25;;;;;21.24;37.17;100599.78;5039395;28;45264;-54
2022/12/30 04:17:17;;;;;;;;;2.25;2.25;;;;;21.30;37.21;100614.34;5039638;28;50788;-52
2022/12/30 04:19:42;;;;;;;;;5.00;2.00;;;;;21.27;37.27;100610.13;5039426;28;45784;-55
2022/12/30 04:22:08;;;;;;;;;1.50;1.50;;;;;21.26;37.17;100600.53;5046257;28;45323;-52
2022/12/30 04:24:33;;;;;;;;;1.75;1.75;;;;;21.27;37.35;100610.13;5055876;28;45380;-57
2022/12/30 04:26:58;;;;;;;;;3.00;2.00;;;;;21.24;37.48;100601.56;5055820;28;45249;-57
2022/12/30 04:29:23;;;;;;;;;2.00;2.00;;;;;21.16;37.07;100596.78;5037228;28;64171;-57
2022/12/30 04:31:49;;;;;;;;;2.00;2.00;;;;;21.20;37.07;100611.47;5019245;28;67356;-56
2022/12/30 04:34:14;;;;;;;;;2.75;2.00;;;;;21.18;37.14;100594.91;5037569;28;45321;-54
2022/12/30 04:36:41;;;;;;;;;1.00;1.00;;;;;21.19;37.37;100599.22;5036078;28;45632;-56
2022/12/30 04:39:06;;;;;;;;;5.00;2.25;;;;;21.15;37.34;100595.94;5037004;28;45392;-59
2022/12/30 04:41:31;;;;;;;;;2.00;2.00;;;;;21.15;37.08;100600.34;5037302;28;51953;-57
2022/12/30 04:43:57;;;;;;;;;2.25;2.25;;;;;21.13;37.56;100589.91;5037176;28;52581;-57
2022/12/30 04:46:22;;;;;;;;;5.25;2.25;;;;;21.12;37.18;100589.97;5043532;28;45670;-52
2022/12/30 04:48:47;;;;;;;;;1.50;1.50;;;;;21.10;37.07;100571.66;5044881;28;45281;-54
2022/12/30 04:51:13;;;;;;;;;1.75;1.00;;;;;21.11;37.62;100572.50;5042608;28;45307;-56
2022/12/30 04:53:38;;;;;;;;;3.50;2.50;;;;;21.10;37.17;100581.34;5037835;28;46457;-53
2022/12/30 04:56:03;;;;;;;;;1.25;1.00;;;;;21.03;37.28;100565.06;5063105;28;45140;-56
2022/12/30 04:58:29;;;;;;;;;3.25;3.25;;;;;21.08;37.29;100559.50;5062616;28;46208;-52
2022/12/30 05:00:54;;;;;;;;;2.00;1.67;;;;;21.05;37.39;100550.03;5037270;28;57268;-57
2022/12/30 05:03:19;;;;;;;;;2.50;1.75;;;;;21.04;37.60;100543.06;5037809;28;45440;-55
2022/12/30 05:05:46;;;;;;;;;2.00;2.00;;;;;21.04;37.17;100544.81;5037465;28;45637;-54
2022/12/30 05:08:11;;;;;;;;;2.00;2.00;;;;;21.01;37.27;100549.34;5036584;28;47333;-52
2022/12/30 05:10:38;;;;;;;;;3.00;2.00;;;;;21.03;37.41;100548.41;5040054;28;45334;-54
2022/12/30 05:13:04;;;;;;;;;2.25;2.25;;;;;20.93;37.60;100525.25;5055071;28;44782;-56
2022/12/30 05:15:31;;;;;;;;;1.00;1.00;;;;;21.00;37.53;100526.56;5054330;28;45138;-57
2022/12/30 05:17:56;;;;;;;;;2.00;2.00;;;;;20.91;37.64;100494.69;5046581;28;46173;-56
2022/12/30 05:20:22;;;;;;;;;3.25;2.00;;;;;20.97;37.54;100491.66;5057179;28;44775;-59
2022/12/30 05:22:47;;;;;;;;;3.00;2.00;;;;;20.98;37.08;100490.72;5047630;28;45340;-55
2022/12/30 05:27:56;;;;;;;;;1.25;1.00;;;;;20.95;37.64;100499.69;5040370;28;45762;-55
2022/12/30 05:30:22;;;;;;;;;2.00;2.00;;;;;20.94;37.68;100495.34;5061104;28;44768;-53
2022/12/30 05:32:48;;;;;;;;;1.75;1.75;;;;;20.93;37.84;100500.72;5039284;28;45257;-55
2022/12/30 05:35:14;;;;;;;;;2.50;2.00;;;;;20.94;37.92;100492.72;5037195;28;45514;-55
2022/12/30 05:37:39;;;;;;;;;3.00;1.75;;;;;20.96;37.48;100498.75;5037601;28;46190;-55
2022/12/30 05:40:05;;;;;;;;;3.00;2.00;;;;;20.97;37.53;100487.25;5056146;28;66010;-55
2022/12/30 05:42:31;;;;;;;;;3.50;2.75;;;;;20.94;37.79;100466.38;5066588;28;45287;-59
2022/12/30 05:44:56;;;;;;;;;2.00;2.00;;;;;20.99;37.85;100461.66;5063768;28;45568;-54
2022/12/30 05:47:22;;;;;;;;;3.00;2.00;;;;;21.09;37.84;100464.53;5056681;28;59610;-59
2022/12/30 05:49:48;;;;;;;;;2.00;1.00;;;;;21.07;37.56;100445.34;5056679;28;45441;-59
2022/12/30 05:52:14;;;;;;;;;2.50;1.25;;;;;21.15;38.07;100442.22;5056760;28;45435;-57
2022/12/30 05:54:40;;;;;;;;;1.00;1.00;;;;;21.18;38.04;100439.41;5056814;28;45551;-58
2022/12/30 05:57:05;;;;;;;;;4.00;1.50;;;;;21.23;37.42;100439.94;5056327;28;45861;-58
2022/12/30 05:59:31;;;;;;;;;1.75;1.75;;;;;21.28;37.68;100431.72;5057621;28;46024;-55
2022/12/30 06:01:56;;;;;;;;;1.50;0.50;;;;;21.31;37.71;100424.50;5064725;28;45363;-54
2022/12/30 06:04:21;;;;;;;;;2.67;1.00;;;;;21.34;37.43;100414.66;5062825;28;56043;-56
2022/12/30 06:06:46;;;;;;;;;1.00;1.00;;;;;21.37;37.42;100403.94;5056176;28;50715;-58
2022/12/30 06:09:12;;;;;;;;;1.00;1.00;;;;;21.29;37.79;100386.84;5056549;28;45376;-53
2022/12/30 06:11:37;;;;;;;;;3.25;2.00;;;;;21.37;37.56;100393.38;5056401;28;45260;-60
2022/12/30 06:14:02;;;;;;;;;1.00;1.00;;;;;21.44;37.48;100397.31;5057935;28;45201;-52
2022/12/30 06:16:28;;;;;;;;;1.00;0.00;;;;;21.45;37.35;100388.44;5076116;28;72279;-54
2022/12/30 06:18:53;;;;;;;;;1.00;1.00;;;;;21.49;37.29;100389.09;5073771;28;44646;-52
2022/12/30 06:21:18;;;;;;;;;1.00;1.00;;;;;21.51;37.19;100385.41;5068863;28;45245;-52
2022/12/30 06:23:44;;;;;;;;;3.75;1.00;;;;;21.45;37.15;100365.56;5056172;28;45237;-64
2022/12/30 06:26:09;;;;;;;;;1.00;1.00;;;;;21.54;37.16;100372.03;5055413;28;67316;-53
2022/12/30 06:28:34;;;;;;;;;4.75;2.00;;;;;21.52;37.28;100360.75;5055758;28;52068;-56
2022/12/30 06:30:59;;;;;;;;;1.00;1.00;;;;;21.59;37.21;100362.03;5057712;28;45343;-56
2022/12/30 06:33:25;;;;;;;;;1.00;1.00;;;;;21.60;37.41;100358.44;5075578;28;45378;-58
2022/12/30 06:35:51;;;;;;;;;2.25;0.00;;;;;21.61;37.24;100348.75;5068381;28;45319;-59
2022/12/30 06:38:16;;;;;;;;;1.00;1.00;;;;;21.65;37.31;100349.41;5077777;28;45454;-53
2022/12/30 06:40:41;;;;;;;;;1.00;1.00;;;;;21.66;36.90;100330.00;5079662;27;47959;-65
2022/12/30 06:43:07;;;;;;;;;1.00;1.00;;;;;21.67;36.87;100327.22;5085514;28;44824;-53
2022/12/30 06:45:32;;;;;;;;;1.00;1.00;;;;;21.68;37.14;100322.78;5066055;28;45418;-57
2022/12/30 06:47:57;;;;;;;;;2.25;1.00;;;;;21.71;37.08;100314.69;5072145;28;67384;-61
2022/12/30 06:50:23;;;;;;;;;1.00;1.00;;;;;21.70;37.16;100307.72;5082042;28;46362;-57
2022/12/30 06:52:48;;;;;;;;;2.25;0.00;;;;;21.70;37.17;100305.06;5060586;28;45572;-60
2022/12/30 06:55:13;;;;;;;;;4.00;1.00;;;;;21.68;37.21;100312.25;5059429;28;45995;-65
2022/12/30 06:57:39;;;;;;;;;1.00;1.00;;;;;21.67;37.23;100308.78;5059124;28;45475;-60
2022/12/30 07:00:06;;;;;;;;;5.00;1.00;;;;;21.66;37.04;100298.34;5059354;28;45746;-63
2022/12/30 07:02:33;;;;;;;;;0.00;0.00;;;;;21.64;37.30;100292.31;5059284;28;45554;-60
2022/12/30 07:04:58;;;;;;;;;1.25;1.00;;;;;21.62;37.23;100281.84;5059119;28;46418;-55
2022/12/30 07:07:23;;;;;;;;;1.25;1.25;;;;;21.61;37.12;100282.81;5059005;28;45325;-55
2022/12/30 07:09:49;;;;;;;;;2.00;0.00;;;;;21.59;37.24;100275.00;5059188;28;45365;-54
2022/12/30 07:12:14;;;;;;;;;3.00;1.50;;;;;21.58;37.50;100275.94;5059121;28;45324;-58
2022/12/30 07:14:39;;;;;;;;;2.50;1.00;;;;;21.57;37.40;100268.97;5064907;28;47052;-49
2022/12/30 07:17:05;;;;;;;;;1.00;1.00;;;;;21.55;37.09;100262.94;5064050;28;45374;-53
2022/12/30 07:19:30;;;;;;;;;0.75;0.75;;;;;21.54;37.07;100242.81;5073946;28;45364;-54
2022/12/30 07:21:55;;;;;;;;;1.00;1.00;;;;;21.55;37.17;100233.13;5083576;27;45345;-53
2022/12/30 07:24:21;;;;;;;;;0.00;0.00;;;;;21.51;37.17;100235.13;5060514;28;45340;-53
2022/12/30 07:26:46;;;;;;;;;1.25;1.00;;;;;21.59;37.12;100239.91;5058220;28;58263;-59
2022/12/30 07:29:12;;;;;;;;;0.75;0.00;;;;;21.52;37.10;100218.34;5059781;28;45359;-48
2022/12/30 07:31:38;;;;;;;;;2.25;1.75;;;;;21.57;37.47;100226.78;5070973;28;44834;-49
2022/12/30 07:34:04;;;;;;;;;1.00;1.00;;;;;21.65;37.37;100233.34;5074514;28;46419;-52
2022/12/30 07:36:29;;;;;;;;;1.00;1.00;;;;;21.61;37.03;100217.75;5062416;28;45359;-49
2022/12/30 07:38:57;;;;;;;;;1.25;1.00;;;;;21.69;37.23;100221.63;5044987;28;45223;-48
2022/12/30 07:41:22;;;;;;;;;1.50;1.50;;;;;21.70;37.30;100215.41;5064699;28;45521;-51
2022/12/30 07:43:47;;;;;;;;;0.00;0.00;;;;;21.72;37.34;100208.22;5056803;28;67827;-57
2022/12/30 07:46:13;;;;;;;;;2.00;1.67;;;;;21.72;37.15;100203.78;5057656;28;67211;-56
2022/12/30 07:48:38;;;;;;;;;2.75;1.00;;;;;21.74;37.28;100201.88;5058811;28;45296;-58
2022/12/30 07:51:12;;;;;;;;;2.00;2.00;;;;;21.68;37.41;100201.47;5058313;28;45558;-54
2022/12/30 07:53:38;;;;;;;;;2.00;0.75;;;;;21.74;37.24;100209.81;5061872;28;46184;-51
2022/12/30 07:56:09;;;;;;;;;0.75;0.75;;;;;21.74;37.21;100211.63;5065866;28;45991;-55
2022/12/30 07:58:34;;;;;;;;;3.25;0.25;;;;;21.75;37.10;100213.31;5061640;28;45354;-47
2022/12/30 08:01:08;;;;;;;;;2.00;1.00;;;;;21.77;37.27;100214.03;5059114;28;45550;-49
2022/12/30 08:03:34;;;;;;;;;1.00;1.00;;;;;21.77;37.20;100211.41;5042167;28;47205;-48
2022/12/30 08:06:04;;;;;;;;;1.00;1.00;;;;;21.75;37.33;100213.31;5057721;28;45331;-47
2022/12/30 08:08:30;;;;;;;;;0.75;0.75;;;;;21.77;37.23;100208.75;5073830;28;45656;-58
2022/12/30 08:10:57;;;;;;;;;0.00;0.00;;;;;21.71;36.87;100193.34;5077902;28;45407;-59
2022/12/30 08:13:22;;;;;;;;;1.00;1.00;;;;;21.75;37.27;100198.31;5060930;28;46140;-49
2022/12/30 08:15:48;;;;;;;;;1.00;1.00;;;;;21.75;37.10;100189.56;5058793;28;45409;-53
2022/12/30 08:18:13;;;;;;;;;0.25;0.00;;;;;21.75;37.24;100171.09;5073015;28;45296;-50
2022/12/30 08:20:38;;;;;;;;;2.00;1.00;;;;;21.74;37.53;100164.13;5070696;28;51475;-60
2022/12/30 08:23:03;;;;;;;;;0.50;0.25;;;;;21.73;37.40;100170.34;5057029;28;57618;-62
2022/12/30 08:25:29;;;;;;;;;1.00;1.00;;;;;21.65;37.09;100154.25;5056809;28;67021;-59
2022/12/30 08:27:54;;;;;;;;;0.25;0.25;;;;;21.58;37.50;100152.00;5057510;28;45320;-63
2022/12/30 08:30:19;;;;;;;;;1.00;1.00;;;;;21.55;37.50;100143.47;5060361;28;52932;-62
2022/12/30 08:32:45;;;;;;;;;2.67;1.00;;;;;21.59;37.47;100166.06;5062617;28;63344;-55
2022/12/30 08:35:10;;;;;;;;;1.50;0.50;;;;;21.55;37.40;100156.66;5044164;28;45241;-66
2022/12/30 08:37:35;;;;;;;;;0.00;0.00;;;;;21.53;37.24;100151.50;5056974;28;60270;-61
2022/12/30 08:40:01;;;;;;;;;0.50;0.50;;;;;21.48;37.25;100140.41;5057711;28;45490;-52
2022/12/30 08:42:26;;;;;;;;;1.00;0.00;;;;;21.48;37.46;100140.41;5056885;28;46201;-52
2022/12/30 08:44:52;;;;;;;;;2.75;1.00;;;;;21.46;37.34;100137.03;5056885;28;45311;-51
2022/12/30 08:47:17;;;;;;;;;1.00;1.00;;;;;21.43;37.38;100117.00;5056965;28;45511;-60
2022/12/30 08:49:42;;;;;;;;;0.75;0.75;;;;;21.36;37.39;100121.03;5057117;28;45458;-56
2022/12/30 08:52:08;;;;;;;;;1.00;1.00;;;;;21.33;37.33;100102.78;5056441;28;46125;-53
2022/12/30 08:54:33;;;;;;;;;0.00;0.00;;;;;21.37;37.45;100106.91;5056105;28;64832;-54
2022/12/30 08:56:58;;;;;;;;;0.25;0.25;;;;;21.34;37.30;100114.16;5056608;28;45219;-55
2022/12/30 08:59:23;;;;;;;;;1.67;1.67;;;;;21.25;37.60;100079.59;5056039;28;56568;-53
2022/12/30 09:01:49;;;;;;;;;0.25;0.25;;;;;21.29;37.59;100089.00;5038397;28;45370;-55
2022/12/30 09:04:14;;;;;;;;;0.00;0.00;;;;;21.26;37.51;100077.84;5056575;28;45341;-55
2022/12/30 09:06:41;;;;;;;;;1.25;1.00;;;;;21.16;37.66;100077.63;5057380;28;45480;-53
2022/12/30 09:09:08;;;;;;;;;1.25;1.00;;;;;21.21;37.66;100078.16;5063554;28;45543;-54
2022/12/30 09:11:36;;;;;;;;;1.00;1.00;;;;;21.19;37.59;100058.97;5064076;28;46228;-51
2022/12/30 09:14:04;;;;;;;;;1.00;1.00;;;;;21.17;37.79;100047.69;5061979;28;45250;-52
2022/12/30 09:16:30;;;;;;;;;1.00;0.50;;;;;21.10;38.09;100025.38;5057825;28;45249;-51
2022/12/30 09:18:56;;;;;;;;;0.00;0.00;;;;;21.12;37.89;100033.97;5064040;28;45313;-54
2022/12/30 09:21:22;;;;;;;;;2.50;0.00;;;;;21.09;37.81;100023.69;5075787;28;46351;-50
2022/12/30 09:23:48;;;;;;;;;2.25;1.00;;;;;21.09;38.13;100021.06;5072363;28;45328;-51
2022/12/30 09:26:22;;;;;;;;;1.00;0.25;;;;;21.05;37.84;100014.31;5057502;28;45355;-47
2022/12/30 09:28:47;;;;;;;;;0.00;0.00;;;;;21.05;37.93;100025.69;5065756;28;45449;-51
2022/12/30 09:31:13;;;;;;;;;0.00;0.00;;;;;21.03;37.81;100032.00;5075794;28;45007;-49
2022/12/30 09:33:38;;;;;;;;;0.50;0.50;;;;;20.94;38.04;100008.00;5074159;28;45232;-55
2022/12/30 09:36:05;;;;;;;;;0.75;0.00;;;;;20.96;37.98;100027.19;5058189;28;45432;-48
2022/12/30 09:38:30;;;;;;;;;0.75;0.75;;;;;20.97;38.00;100020.97;5057541;28;45240;-52
2022/12/30 09:41:07;;;;;;;;;0.00;0.00;;;;;20.96;38.20;100021.91;5054869;28;55342;-56
2022/12/30 09:43:48;;;;;;;;;3.00;1.00;;;;;20.96;38.05;100021.06;5056124;28;45709;-51
2022/12/30 09:46:39;;;;;;;;;1.00;1.00;;;;;20.94;38.07;100013.28;5063181;28;45390;-51
2022/12/30 09:49:15;;;;;;;;;2.25;0.75;;;;;20.94;38.29;100002.72;5058100;28;45339;-53
2022/12/30 09:51:45;;;;;;;;;0.50;0.00;;;;;20.93;38.36;99992.31;5056071;28;46524;-51
2022/12/30 09:54:16;;;;;;;;;1.00;1.00;;;;;20.92;38.54;99983.56;5056632;28;45178;-51
2022/12/30 09:56:44;;;;;;;;;0.75;0.75;;;;;20.92;38.04;99983.56;5076071;28;45303;-51
2022/12/30 09:59:18;;;;;;;;;1.00;1.00;;;;;20.90;38.00;99995.97;5079303;27;44900;-50
2022/12/30 10:02:22;;;;;;;;;0.00;0.00;;;;;20.85;38.15;99969.16;5065636;28;46182;-57
2022/12/30 10:04:48;;;;;;;;;1.00;1.00;;;;;20.89;38.25;99957.41;5056394;28;45391;-52
2022/12/30 10:07:37;;;;;;;;;0.75;0.75;;;;;20.87;38.66;99953.22;5071408;28;45311;-58
2022/12/30 10:10:11;;;;;;;;;1.00;1.00;;;;;20.87;38.59;99958.50;5044888;28;45521;-58
2022/12/30 10:13:07;;;;;;;;;2.25;0.50;;;;;20.86;38.43;99939.22;5060077;28;47236;-54
2022/12/30 10:16:03;;;;;;;;;0.25;0.25;;;;;20.84;38.15;99928.78;5061469;28;45767;-52
2022/12/30 10:18:53;;;;;;;;;2.25;1.00;;;;;20.79;38.76;99909.00;5082284;28;44749;-64
2022/12/30 10:21:25;;;;;;;;;0.25;0.25;;;;;20.75;38.74;99895.19;5080867;28;45533;-61
2022/12/30 10:24:38;;;;;;;;;0.50;0.00;;;;;20.83;38.80;99889.41;5074043;28;46193;-64
2022/12/30 10:27:16;;;;;;;;;0.00;0.00;;;;;20.82;38.40;99883.31;5062813;28;45351;-67
2022/12/30 10:29:43;;;;;;;;;0.00;0.00;;;;;20.80;38.90;99881.72;5086636;28;44754;-52
2022/12/30 10:32:14;;;;;;;;;0.50;0.50;;;;;20.80;38.69;99892.25;5051219;28;45339;-57
2022/12/30 10:34:40;;;;;;;;;0.50;0.50;;;;;20.78;38.89;99867.84;5059414;28;46261;-58
2022/12/30 10:37:13;;;;;;;;;0.25;0.25;;;;;20.73;38.87;99862.84;5059340;28;45845;-52
2022/12/30 10:39:48;;;;;;;;;0.75;0.00;;;;;20.77;38.45;99877.50;5059614;28;45335;-54
2022/12/30 10:42:28;;;;;;;;;0.50;0.00;;;;;20.76;38.81;99875.00;5059488;28;45375;-53
2022/12/30 10:45:23;;;;;;;;;3.00;1.00;;;;;20.75;38.68;99871.50;5059214;28;46273;-54
2022/12/30 10:47:54;;;;;;;;;2.25;1.00;;;;;20.74;39.05;99853.16;5062959;28;45387;-54
2022/12/30 10:50:36;;;;;;;;;0.00;0.00;;;;;20.72;39.00;99860.31;5077646;28;45364;-57
2022/12/30 10:53:04;;;;;;;;;4.75;1.00;;;;;20.72;38.78;99839.25;5059495;28;45573;-54
2022/12/30 10:55:34;;;;;;;;;1.00;0.00;;;;;20.70;38.84;99842.00;5058627;28;46183;-54
2022/12/30 10:58:03;;;;;;;;;0.00;0.00;;;;;20.69;39.17;99843.78;5059389;28;45776;-56
2022/12/30 11:00:32;;;;;;;;;0.00;0.00;;;;;20.67;38.96;99814.09;5065971;28;45288;-53
2022/12/30 11:03:30;;;;;;;;;0.00;0.00;;;;;20.67;38.94;99821.16;5065114;28;45523;-55
2022/12/30 11:06:16;;;;;;;;;0.25;0.00;;;;;20.67;39.23;99840.41;5061575;28;46421;-54
2022/12/30 11:08:41;;;;;;;;;2.00;0.00;;;;;20.66;39.30;99811.59;5065166;28;45339;-54
2022/12/30 11:11:11;;;;;;;;;0.00;0.00;;;;;20.65;38.98;99794.97;5077637;28;44626;-57
2022/12/30 11:16:26;;;;;;;;;0.00;0.00;;;;;20.64;38.80;99816.97;5059042;28;45507;-53
2022/12/30 11:18:52;;;;;;;;;0.00;0.00;;;;;20.55;39.21;99807.94;5057920;28;45271;-53
2022/12/30 11:21:26;;;;;;;;;0.00;0.00;;;;;20.61;38.85;99804.00;5069472;28;45714;-54
2022/12/30 11:23:54;;;;;;;;;0.00;0.00;;;;;20.54;38.96;99790.44;5076071;28;45176;-52
2022/12/30 11:26:23;;;;;;;;;1.00;0.00;;;;;20.61;39.08;99801.38;5058527;28;46441;-51
2022/12/30 11:29:09;;;;;;;;;0.00;0.00;;;;;20.60;38.98;99802.34;5058758;28;45387;-56
2022/12/30 11:31:42;;;;;;;;;1.50;0.00;;;;;20.59;38.94;99782.22;5058687;28;45423;-58
2022/12/30 11:34:20;;;;;;;;;0.00;0.00;;;;;20.58;39.33;99771.81;5040611;28;45570;-56
2022/12/30 11:36:46;;;;;;;;;0.75;0.00;;;;;20.55;39.37;99784.25;5064241;28;46150;-54
2022/12/30 11:39:27;;;;;;;;;2.00;0.00;;;;;20.50;38.96;99775.84;5065971;28;45174;-53
2022/12/30 11:41:56;;;;;;;;;0.00;0.00;;;;;20.57;39.00;99791.19;5058165;28;45345;-56
2022/12/30 11:44:31;;;;;;;;;0.00;0.00;;;;;20.55;39.49;99786.03;5061085;28;45282;-53
2022/12/30 11:47:01;;;;;;;;;0.00;0.00;;;;;20.54;39.58;99774.66;5072671;28;46270;-54
2022/12/30 11:49:36;;;;;;;;;0.00;0.00;;;;;20.54;39.24;99781.72;5074063;28;45289;-56
2022/12/30 11:52:11;;;;;;;;;0.00;0.00;;;;;20.54;39.41;99787.00;5058328;28;45323;-59
2022/12/30 11:54:50;;;;;;;;;0.00;0.00;;;;;20.47;39.42;99772.56;5058203;28;45429;-54
2022/12/30 11:57:30;;;;;;;;;0.00;0.00;;;;;20.53;39.36;99764.25;5058096;28;47167;-58
2022/12/30 12:00:24;;;;;;;;;0.00;0.00;;;;;20.52;39.43;99770.47;5057536;28;45480;-53
2022/12/30 12:03:01;;;;;;;;;0.00;0.00;;;;;20.49;39.53;99771.53;5057930;28;45262;-54
2022/12/30 12:05:31;;;;;;;;;0.00;0.00;;;;;20.50;39.71;99762.69;5058704;28;45486;-53
2022/12/30 12:08:04;;;;;;;;;0.75;0.75;;;;;20.51;39.79;99742.47;5069446;28;45216;-54
2022/12/30 12:10:37;;;;;;;;;0.00;0.00;;;;;20.47;39.37;99751.50;5071114;28;45308;-56
2022/12/30 12:13:23;;;;;;;;;1.00;0.00;;;;;20.50;39.31;99756.56;5060756;28;45376;-52
2022/12/30 12:15:53;;;;;;;;;0.00;0.00;;;;;20.43;39.52;99750.91;5071694;28;45866;-56
2022/12/30 12:18:44;;;;;;;;;0.00;0.00;;;;;20.49;39.26;99768.03;5043968;28;48166;-56
2022/12/30 12:21:12;;;;;;;;;0.00;0.00;;;;;20.49;39.89;99760.16;5058488;28;45686;-56
2022/12/30 12:24:04;;;;;;;;;0.00;0.00;;;;;20.48;39.58;99756.69;5057966;28;45344;-55
2022/12/30 12:26:58;;;;;;;;;0.00;0.00;;;;;20.47;39.53;99755.00;5058702;28;45473;-53
2022/12/30 12:29:24;;;;;;;;;0.00;0.00;;;;;20.46;39.68;99749.84;5056525;28;45653;-57
2022/12/30 12:32:02;;;;;;;;;0.00;0.00;;;;;20.48;39.47;99742.66;5076722;28;45467;-54
2022/12/30 12:34:57;;;;;;;;;0.00;0.00;;;;;20.46;39.60;99750.69;5068699;28;45182;-58